createdAt,value
2017-10-19T00:00:33.586Z,12.45
2017-10-19T00:02:59.788Z,12.82
2017-10-19T00:05:26.182Z,11.07
2017-10-19T00:07:52.373Z,11.68
2017-10-19T00:10:18.823Z,12.13
2017-10-19T00:12:45.494Z,11.23
2017-10-19T00:15:11.779Z,11.48
2017-10-19T00:17:38.059Z,12.57
2017-10-19T00:20:04.319Z,14.50
2017-10-19T00:22:30.589Z,11.63
2017-10-19T00:24:57.182Z,11.65
2017-10-19T00:27:24.323Z,10.70
2017-10-19T00:29:50.570Z,11.40
2017-10-19T00:32:17.715Z,11.90
2017-10-19T00:34:43.980Z,13.05
2017-10-19T00:37:10.222Z,11.60
2017-10-19T00:39:36.495Z,12.00
2017-10-19T00:42:02.752Z,13.23
2017-10-19T00:44:29.406Z,13.48
2017-10-19T00:46:56.028Z,12.05
2017-10-19T00:49:22.935Z,11.88
2017-10-19T00:51:49.190Z,12.85
2017-10-19T00:54:15.459Z,11.88
2017-10-19T00:56:41.743Z,11.27
2017-10-19T00:59:08.022Z,11.52
2017-10-19T01:01:34.287Z,11.27
2017-10-19T01:04:00.588Z,13.20
2017-10-19T01:06:26.877Z,11.75
2017-10-19T01:08:53.501Z,12.15
2017-10-19T01:11:19.792Z,12.18
2017-10-19T01:13:46.058Z,13.25
2017-10-19T01:16:12.364Z,13.48
2017-10-19T01:18:38.651Z,12.02
2017-10-19T01:21:04.935Z,11.23
2017-10-19T01:23:31.227Z,11.10
2017-10-19T01:25:57.511Z,9.75
2017-10-19T01:28:24.191Z,11.98
2017-10-19T01:30:50.512Z,11.10
2017-10-19T01:33:16.847Z,11.02
2017-10-19T01:35:45.760Z,11.02
2017-10-19T01:38:12.035Z,11.00
2017-10-19T01:40:38.711Z,12.05
2017-10-19T01:43:04.975Z,11.15
2017-10-19T01:45:31.286Z,11.73
2017-10-19T01:47:57.583Z,11.30
2017-10-19T01:50:23.872Z,10.88
2017-10-19T01:52:50.130Z,11.00
2017-10-19T01:55:16.759Z,10.63
2017-10-19T01:57:42.986Z,10.10
2017-10-19T02:00:09.217Z,11.07
2017-10-19T02:02:35.472Z,10.30
2017-10-19T02:05:01.708Z,9.50
2017-10-19T02:07:27.923Z,10.93
2017-10-19T02:09:54.189Z,10.65
2017-10-19T02:12:20.417Z,11.35
2017-10-19T02:14:46.682Z,11.55
2017-10-19T02:17:12.910Z,9.57
2017-10-19T02:19:39.117Z,10.55
2017-10-19T02:22:05.336Z,9.85
2017-10-19T02:24:31.548Z,10.23
2017-10-19T02:26:57.748Z,9.35
2017-10-19T02:29:24.327Z,10.20
2017-10-19T02:31:50.516Z,14.18
2017-10-19T02:34:16.737Z,10.23
2017-10-19T02:36:43.305Z,10.10
2017-10-19T02:39:09.596Z,12.95
2017-10-19T02:41:36.162Z,10.65
2017-10-19T02:44:02.380Z,10.30
2017-10-19T02:46:28.570Z,10.20
2017-10-19T02:48:54.775Z,10.10
2017-10-19T02:51:21.008Z,10.63
2017-10-19T02:53:47.224Z,10.82
2017-10-19T02:56:13.483Z,9.32
2017-10-19T02:58:39.722Z,10.43
2017-10-19T03:01:06.316Z,9.98
2017-10-19T03:03:32.560Z,10.52
2017-10-19T03:05:58.795Z,10.68
2017-10-19T03:08:25.052Z,12.65
2017-10-19T03:10:51.629Z,14.73
2017-10-19T03:13:17.866Z,14.10
2017-10-19T03:15:44.136Z,12.52
2017-10-19T03:18:10.745Z,13.27
2017-10-19T03:20:36.972Z,13.13
2017-10-19T03:23:03.174Z,13.23
2017-10-19T03:25:29.400Z,14.70
2017-10-19T03:27:55.618Z,13.93
2017-10-19T03:30:21.879Z,11.93
2017-10-19T03:32:48.099Z,13.30
2017-10-19T03:35:14.321Z,12.50
2017-10-19T03:37:40.566Z,13.05
2017-10-19T03:40:06.760Z,13.98
2017-10-19T03:42:32.990Z,13.40
2017-10-19T03:44:59.215Z,12.27
2017-10-19T03:47:25.472Z,13.15
2017-10-19T03:49:51.683Z,12.48
2017-10-19T03:52:17.883Z,12.82
2017-10-19T03:54:44.097Z,14.02
2017-10-19T03:57:10.695Z,12.65
2017-10-19T03:59:36.914Z,12.70
2017-10-19T04:02:04.148Z,12.82
2017-10-19T04:04:30.369Z,12.75
2017-10-19T04:06:56.586Z,13.25
2017-10-19T04:09:22.810Z,12.60
2017-10-19T04:11:49.002Z,12.77
2017-10-19T04:14:15.207Z,12.63
2017-10-19T04:16:41.426Z,12.18
2017-10-19T04:19:07.628Z,12.35
2017-10-19T04:21:33.858Z,12.05
2017-10-19T04:24:00.037Z,12.15
2017-10-19T04:26:26.240Z,12.35
2017-10-19T04:28:52.448Z,12.60
2017-10-19T04:31:18.662Z,11.90
2017-10-19T04:33:44.857Z,11.55
2017-10-19T04:36:11.656Z,11.85
2017-10-19T04:38:38.845Z,12.23
2017-10-19T04:41:05.078Z,11.15
2017-10-19T04:43:31.295Z,12.15
2017-10-19T04:45:57.489Z,12.57
2017-10-19T04:48:23.702Z,15.00
2017-10-19T04:50:49.904Z,13.88
2017-10-19T04:53:16.477Z,24.80
2017-10-19T04:55:42.768Z,15.93
2017-10-19T04:58:09.365Z,17.35
2017-10-19T05:00:35.610Z,22.37
2017-10-19T05:03:01.846Z,17.73
2017-10-19T05:05:29.001Z,19.42
2017-10-19T05:07:55.669Z,16.45
2017-10-19T05:10:21.909Z,14.77
2017-10-19T05:12:48.149Z,14.23
2017-10-19T05:15:14.388Z,16.12
2017-10-19T05:17:40.625Z,23.40
2017-10-19T05:20:06.843Z,17.48
2017-10-19T05:22:33.102Z,16.87
2017-10-19T05:24:59.322Z,19.15
2017-10-19T05:27:25.561Z,20.98
2017-10-19T05:29:51.765Z,18.27
2017-10-19T05:32:17.946Z,14.52
2017-10-19T05:34:44.985Z,15.05
2017-10-19T05:37:11.543Z,14.63
2017-10-19T05:39:37.776Z,20.30
2017-10-19T05:42:03.982Z,21.00
2017-10-19T05:44:30.189Z,15.45
2017-10-19T05:46:56.767Z,15.20
2017-10-19T05:49:22.991Z,16.00
2017-10-19T05:51:49.192Z,14.85
2017-10-19T05:54:15.697Z,15.48
2017-10-19T05:56:41.935Z,16.23
2017-10-19T05:59:08.553Z,15.25
2017-10-19T06:01:34.777Z,14.30
2017-10-19T06:04:00.985Z,14.85
2017-10-19T06:06:27.216Z,14.07
2017-10-19T06:08:53.414Z,15.88
2017-10-19T06:11:20.623Z,15.82
2017-10-19T06:13:46.867Z,13.85
2017-10-19T06:16:13.441Z,15.02
2017-10-19T06:18:39.649Z,15.75
2017-10-19T06:21:05.860Z,16.10
2017-10-19T06:23:32.432Z,16.87
2017-10-19T06:25:58.730Z,17.77
2017-10-19T06:28:25.326Z,17.10
2017-10-19T06:30:51.558Z,18.92
2017-10-19T06:33:17.761Z,22.95
2017-10-19T06:35:44.035Z,17.62
2017-10-19T06:38:10.633Z,16.20
2017-10-19T06:40:36.866Z,19.52
2017-10-19T06:43:03.119Z,16.12
2017-10-19T06:45:29.400Z,17.75
2017-10-19T06:47:55.628Z,16.48
2017-10-19T06:50:21.841Z,19.85
2017-10-19T06:52:48.025Z,16.55
2017-10-19T06:55:14.443Z,16.15
2017-10-19T06:57:40.676Z,15.95
2017-10-19T07:00:06.938Z,16.25
2017-10-19T07:02:33.190Z,15.93
2017-10-19T07:04:59.426Z,17.40
2017-10-19T07:07:25.628Z,16.65
2017-10-19T07:09:52.214Z,17.37
2017-10-19T07:12:18.418Z,17.67
2017-10-19T07:14:44.683Z,19.42
2017-10-19T07:17:11.884Z,19.00
2017-10-19T07:19:38.493Z,18.33
2017-10-19T07:22:05.045Z,17.45
2017-10-19T07:24:31.673Z,19.33
2017-10-19T07:26:57.861Z,17.62
2017-10-19T07:29:24.080Z,16.60
2017-10-19T07:31:50.316Z,17.58
2017-10-19T07:34:16.530Z,18.15
2017-10-19T07:36:42.778Z,17.65
2017-10-19T07:39:09.047Z,18.70
2017-10-19T07:41:35.631Z,16.90
2017-10-19T07:44:01.879Z,18.83
2017-10-19T07:46:28.080Z,17.92
2017-10-19T07:48:54.302Z,18.75
2017-10-19T07:51:20.497Z,16.60
2017-10-19T07:53:47.119Z,20.00
2017-10-19T07:56:13.351Z,19.00
2017-10-19T07:58:39.970Z,20.33
2017-10-19T08:01:06.183Z,18.10
2017-10-19T08:03:32.653Z,17.98
2017-10-19T08:05:59.208Z,19.77
2017-10-19T08:08:25.794Z,18.10
2017-10-19T08:10:52.025Z,18.37
2017-10-19T08:13:18.274Z,18.70
2017-10-19T08:15:44.498Z,17.98
2017-10-19T08:18:10.731Z,19.65
2017-10-19T08:20:36.984Z,17.98
2017-10-19T08:23:03.580Z,18.50
2017-10-19T08:25:29.789Z,17.77
2017-10-19T08:27:55.996Z,17.67
2017-10-19T08:30:22.228Z,19.20
2017-10-19T08:32:48.444Z,18.12
2017-10-19T08:35:14.679Z,20.08
2017-10-19T08:37:40.925Z,20.40
2017-10-19T08:40:07.159Z,21.77
2017-10-19T08:42:33.392Z,22.83
2017-10-19T08:44:59.642Z,21.65
2017-10-19T08:47:25.853Z,20.52
2017-10-19T08:49:52.090Z,21.83
2017-10-19T08:52:18.322Z,22.67
2017-10-19T08:54:44.573Z,22.50
2017-10-19T08:57:11.179Z,28.85
2017-10-19T08:59:37.437Z,21.08
2017-10-19T09:02:04.007Z,23.42
2017-10-19T09:04:30.286Z,22.33
2017-10-19T09:06:56.502Z,24.30
2017-10-19T09:09:22.735Z,25.62
2017-10-19T09:11:48.970Z,23.60
2017-10-19T09:14:15.173Z,26.95
2017-10-19T09:16:41.392Z,24.95
2017-10-19T09:19:07.626Z,22.80
2017-10-19T09:21:33.870Z,24.48
2017-10-19T09:24:00.072Z,25.95
2017-10-19T09:26:26.332Z,24.73
2017-10-19T09:28:52.527Z,24.30
2017-10-19T09:31:18.713Z,24.67
2017-10-19T09:33:45.301Z,24.17
2017-10-19T09:36:11.513Z,25.07
2017-10-19T09:38:38.003Z,23.87
2017-10-19T09:41:04.601Z,24.20
2017-10-19T09:43:30.801Z,26.63
2017-10-19T09:45:57.009Z,24.07
2017-10-19T09:48:23.604Z,24.67
2017-10-19T09:50:49.837Z,25.40
2017-10-19T09:53:16.045Z,25.33
2017-10-19T09:55:42.280Z,23.63
2017-10-19T09:58:09.420Z,23.77
2017-10-19T10:00:36.475Z,22.43
2017-10-19T10:03:02.749Z,26.47
2017-10-19T10:05:29.325Z,24.50
2017-10-19T10:07:55.548Z,22.17
2017-10-19T10:10:21.762Z,22.70
2017-10-19T10:12:48.002Z,23.10
2017-10-19T10:15:14.212Z,21.30
2017-10-19T10:17:40.487Z,21.53
2017-10-19T10:20:06.722Z,23.43
2017-10-19T10:22:32.949Z,22.13
2017-10-19T10:24:59.174Z,23.80
2017-10-19T10:27:25.383Z,23.93
2017-10-19T10:29:51.596Z,23.23
2017-10-19T10:32:17.846Z,23.13
2017-10-19T10:34:44.046Z,21.73
2017-10-19T10:37:10.293Z,20.17
2017-10-19T10:39:36.494Z,20.20
2017-10-19T10:42:03.012Z,20.97
2017-10-19T10:44:29.601Z,20.63
2017-10-19T10:46:55.809Z,18.90
2017-10-19T10:49:22.073Z,19.70
2017-10-19T10:51:48.368Z,16.73
2017-10-19T10:54:14.604Z,17.03
2017-10-19T10:56:40.837Z,17.07
2017-10-19T10:59:07.204Z,16.80
2017-10-19T11:01:33.464Z,17.83
2017-10-19T11:04:00.170Z,17.77
2017-10-19T11:06:26.394Z,16.70
2017-10-19T11:08:52.581Z,18.40
2017-10-19T11:11:18.790Z,16.40
2017-10-19T11:13:45.003Z,15.90
2017-10-19T11:16:11.635Z,16.60
2017-10-19T11:18:38.252Z,17.20
2017-10-19T11:21:04.437Z,15.80
2017-10-19T11:23:30.813Z,16.77
2017-10-19T11:25:57.407Z,14.80
2017-10-19T11:28:23.637Z,15.90
2017-10-19T11:30:49.856Z,16.87
2017-10-19T11:33:16.327Z,16.33
2017-10-19T11:35:42.521Z,14.47
2017-10-19T11:38:08.750Z,15.73
2017-10-19T11:40:35.838Z,14.80
2017-10-19T11:43:02.074Z,13.73
2017-10-19T11:45:28.325Z,14.90
2017-10-19T11:47:54.961Z,14.10
2017-10-19T11:50:21.567Z,13.70
2017-10-19T11:52:47.793Z,12.47
2017-10-19T11:55:14.014Z,14.23
2017-10-19T11:57:40.275Z,13.10
2017-10-19T12:00:07.086Z,13.97
2017-10-19T12:02:33.312Z,13.50
2017-10-19T12:04:59.522Z,11.70
2017-10-19T12:07:25.731Z,12.33
2017-10-19T12:09:51.920Z,12.60
2017-10-19T12:12:18.527Z,10.73
2017-10-19T12:14:44.742Z,10.80
2017-10-19T12:17:11.778Z,12.10
2017-10-19T12:19:38.006Z,11.87
2017-10-19T12:22:04.225Z,15.07
2017-10-19T12:24:30.416Z,10.80
2017-10-19T12:26:57.007Z,11.03
2017-10-19T12:29:23.742Z,10.90
2017-10-19T12:31:49.972Z,11.67
2017-10-19T12:34:16.213Z,11.50
2017-10-19T12:36:42.463Z,10.70
2017-10-19T12:39:08.773Z,9.20
2017-10-19T12:41:35.405Z,10.90
2017-10-19T12:44:01.628Z,11.70
2017-10-19T12:46:27.857Z,10.23
2017-10-19T12:48:54.084Z,11.57
2017-10-19T12:51:21.786Z,11.40
2017-10-19T12:53:48.442Z,9.27
2017-10-19T12:56:15.028Z,9.97
2017-10-19T12:58:41.297Z,8.80
2017-10-19T13:01:07.885Z,15.03
2017-10-19T13:03:34.102Z,10.30
2017-10-19T13:06:00.521Z,10.37
2017-10-19T13:08:26.835Z,9.27
2017-10-19T13:10:53.059Z,10.40
2017-10-19T13:13:19.663Z,9.93
2017-10-19T13:15:45.984Z,9.43
2017-10-19T13:18:12.199Z,10.00
2017-10-19T13:20:38.444Z,12.03
2017-10-19T13:23:04.677Z,10.73
2017-10-19T13:25:30.924Z,11.10
2017-10-19T13:27:57.166Z,10.70
2017-10-19T13:30:23.756Z,9.13
2017-10-19T13:32:50.034Z,10.00
2017-10-19T13:35:16.624Z,10.17
2017-10-19T13:37:42.863Z,11.00
2017-10-19T13:40:09.137Z,10.20
2017-10-19T13:42:36.226Z,9.87
2017-10-19T13:45:02.590Z,9.50
2017-10-19T13:47:28.815Z,9.27
2017-10-19T13:49:55.143Z,9.50
2017-10-19T13:52:21.406Z,10.50
2017-10-19T13:54:47.707Z,9.73
2017-10-19T13:57:14.335Z,10.27
2017-10-19T13:59:41.013Z,9.37
2017-10-19T14:02:07.268Z,10.20
2017-10-19T14:04:33.547Z,9.00
2017-10-19T14:07:00.153Z,9.20
2017-10-19T14:09:26.424Z,9.93
2017-10-19T14:11:53.059Z,10.20
2017-10-19T14:14:19.691Z,11.27
2017-10-19T14:16:46.292Z,9.97
2017-10-19T14:19:13.536Z,10.47
2017-10-19T14:21:39.820Z,10.33
2017-10-19T14:24:06.709Z,10.10
2017-10-19T14:26:32.947Z,9.47
2017-10-19T14:28:59.158Z,9.63
2017-10-19T14:31:25.415Z,8.47
2017-10-19T14:33:51.624Z,8.73
2017-10-19T14:36:17.864Z,7.93
2017-10-19T14:38:44.120Z,6.73
2017-10-19T14:41:10.712Z,8.57
2017-10-19T14:43:36.942Z,10.37
2017-10-19T14:46:03.261Z,12.00
2017-10-19T14:48:29.501Z,10.80
2017-10-19T14:50:55.730Z,12.03
2017-10-19T14:53:22.000Z,13.33
2017-10-19T14:55:48.595Z,14.30
2017-10-19T14:58:15.712Z,14.47
2017-10-19T15:00:41.947Z,13.97
2017-10-19T15:03:08.703Z,15.70
2017-10-19T15:05:34.973Z,15.73
2017-10-19T15:08:01.795Z,15.67
2017-10-19T15:10:28.021Z,18.00
2017-10-19T15:12:54.277Z,16.83
2017-10-19T15:15:20.917Z,17.80
2017-10-19T15:17:48.655Z,18.17
2017-10-19T15:20:14.918Z,21.80
2017-10-19T15:22:41.178Z,17.70
2017-10-19T15:25:07.467Z,20.97
2017-10-19T15:27:34.124Z,17.73
2017-10-19T15:30:00.390Z,17.03
2017-10-19T15:32:26.950Z,18.60
2017-10-19T15:34:53.559Z,19.30
2017-10-19T15:37:19.803Z,20.87
2017-10-19T15:39:46.212Z,21.30
2017-10-19T15:42:12.444Z,21.77
2017-10-19T15:44:38.702Z,20.77
2017-10-19T15:47:05.134Z,21.60
2017-10-19T15:49:31.378Z,20.43
2017-10-19T15:51:57.687Z,20.73
2017-10-19T15:54:23.929Z,21.37
2017-10-19T15:56:50.167Z,21.37
2017-10-19T15:59:16.906Z,20.13
2017-10-19T16:01:43.286Z,21.00
2017-10-19T16:04:09.524Z,21.17
2017-10-19T16:06:36.055Z,21.53
2017-10-19T16:09:02.345Z,22.93
2017-10-19T16:11:28.951Z,20.80
2017-10-19T16:13:55.210Z,21.50
2017-10-19T16:16:21.804Z,23.60
2017-10-19T16:18:48.048Z,24.17
2017-10-19T16:21:14.282Z,23.63
2017-10-19T16:23:40.585Z,23.97
2017-10-19T16:26:06.846Z,23.97
2017-10-19T16:28:33.282Z,23.90
2017-10-19T16:31:00.175Z,25.70
2017-10-19T16:33:26.623Z,25.07
2017-10-19T16:35:52.896Z,27.07
2017-10-19T16:38:19.737Z,25.90
2017-10-19T16:40:46.586Z,26.17
2017-10-19T16:43:13.216Z,25.37
2017-10-19T16:45:39.827Z,25.50
2017-10-19T16:48:06.313Z,27.47
2017-10-19T16:50:32.758Z,25.70
2017-10-19T16:52:59.065Z,25.60
2017-10-19T16:55:25.339Z,28.63
2017-10-19T16:57:52.517Z,27.67
2017-10-19T17:00:18.903Z,26.37
2017-10-19T17:02:45.829Z,25.93
2017-10-19T17:05:12.126Z,29.40
2017-10-19T17:07:39.694Z,31.60
2017-10-19T17:10:06.670Z,26.37
2017-10-19T17:12:32.933Z,27.70
2017-10-19T17:14:59.225Z,28.60
2017-10-19T17:17:25.665Z,28.03
2017-10-19T17:19:52.714Z,27.97
2017-10-19T17:22:19.038Z,27.40
2017-10-19T17:24:46.994Z,27.27
2017-10-19T17:27:13.369Z,28.80
2017-10-19T17:29:39.807Z,27.17
2017-10-19T17:32:08.037Z,30.63
2017-10-19T17:34:34.761Z,25.95
2017-10-19T17:37:01.154Z,27.80
2017-10-19T17:39:28.221Z,29.25
2017-10-19T17:41:54.627Z,26.80
2017-10-19T17:44:20.933Z,26.47
2017-10-19T17:46:47.240Z,26.65
2017-10-19T17:49:13.809Z,27.60
2017-10-19T17:51:40.113Z,27.00
2017-10-19T17:54:06.788Z,28.35
2017-10-19T17:56:34.666Z,29.50
2017-10-19T17:59:01.846Z,29.55
2017-10-19T18:01:28.652Z,28.35
2017-10-19T18:03:55.586Z,29.08
2017-10-19T18:06:22.756Z,29.90
2017-10-19T18:08:49.078Z,28.08
2017-10-19T18:11:15.354Z,29.30
2017-10-19T18:13:41.612Z,28.08
2017-10-19T18:16:08.103Z,27.98
2017-10-19T18:18:35.072Z,29.50
2017-10-19T18:21:01.338Z,30.20
2017-10-19T18:23:27.633Z,27.87
2017-10-19T18:25:54.182Z,29.87
2017-10-19T18:28:20.944Z,27.92
2017-10-19T18:30:47.302Z,27.85
2017-10-19T18:33:15.297Z,28.25
2017-10-19T18:35:42.138Z,26.73
2017-10-19T18:38:08.656Z,27.92
2017-10-19T18:40:36.981Z,28.62
2017-10-19T18:43:03.629Z,28.40
2017-10-19T18:45:30.059Z,28.75
2017-10-19T18:47:56.447Z,27.98
2017-10-19T18:50:24.044Z,26.27
2017-10-19T18:52:50.550Z,30.45
2017-10-19T18:55:16.942Z,26.80
2017-10-19T18:57:43.305Z,27.52
2017-10-19T19:00:10.343Z,31.10
2017-10-19T19:02:36.773Z,29.90
2017-10-19T19:05:03.039Z,30.90
2017-10-19T19:07:29.300Z,30.00
2017-10-19T19:09:55.660Z,33.40
2017-10-19T19:12:22.539Z,30.60
2017-10-19T19:14:48.873Z,30.77
2017-10-19T19:17:15.116Z,27.52
2017-10-19T19:19:41.660Z,30.30
2017-10-19T19:22:08.704Z,32.45
2017-10-19T19:24:35.037Z,31.42
2017-10-19T19:27:01.321Z,32.10
2017-10-19T19:29:28.405Z,29.37
2017-10-19T19:31:54.705Z,29.15
2017-10-19T19:34:21.605Z,28.40
2017-10-19T19:36:47.916Z,28.70
2017-10-19T19:39:14.346Z,28.80
2017-10-19T19:41:41.020Z,29.75
2017-10-19T19:44:07.789Z,28.10
2017-10-19T19:46:34.392Z,30.83
2017-10-19T19:49:00.628Z,30.67
2017-10-19T19:51:27.243Z,29.92
2017-10-19T19:53:54.606Z,31.00
2017-10-19T19:56:20.901Z,31.08
2017-10-19T19:58:47.224Z,30.75
2017-10-19T20:01:13.563Z,33.80
2017-10-19T20:03:40.230Z,28.38
2017-10-19T20:06:06.553Z,28.67
2017-10-19T20:08:32.937Z,31.98
2017-10-19T20:10:59.161Z,31.52
2017-10-19T20:13:25.774Z,30.27
2017-10-19T20:15:53.020Z,33.20
2017-10-19T20:18:19.286Z,31.75
2017-10-19T20:20:45.596Z,29.45
2017-10-19T20:23:13.222Z,28.90
2017-10-19T20:25:39.531Z,28.95
2017-10-19T20:28:05.959Z,30.17
2017-10-19T20:30:32.201Z,31.50
2017-10-19T20:32:58.482Z,32.15
2017-10-19T20:35:25.077Z,30.33
2017-10-19T20:37:51.544Z,32.03
2017-10-19T20:40:18.189Z,31.65
2017-10-19T20:42:44.762Z,33.15
2017-10-19T20:45:11.038Z,32.33
2017-10-19T20:47:37.382Z,33.10
2017-10-19T20:50:04.064Z,31.40
2017-10-19T20:52:30.317Z,32.40
2017-10-19T20:54:57.069Z,34.17
2017-10-19T20:57:23.839Z,31.15
2017-10-19T20:59:50.468Z,29.58
2017-10-19T21:02:16.759Z,29.65
2017-10-19T21:04:43.015Z,28.75
2017-10-19T21:07:09.221Z,32.05
2017-10-19T21:09:35.410Z,29.05
2017-10-19T21:12:01.651Z,31.42
2017-10-19T21:14:29.341Z,29.95
2017-10-19T21:16:55.546Z,28.87
2017-10-19T21:19:21.787Z,28.38
2017-10-19T21:21:48.024Z,30.17
2017-10-19T21:24:14.365Z,27.85
2017-10-19T21:26:40.566Z,27.00
2017-10-19T21:29:06.799Z,28.25
2017-10-19T21:31:33.274Z,29.23
2017-10-19T21:33:59.893Z,31.20
2017-10-19T21:36:26.146Z,26.33
2017-10-19T21:38:52.361Z,26.92
2017-10-19T21:41:18.561Z,28.40
2017-10-19T21:43:44.794Z,28.40
2017-10-19T21:46:11.099Z,25.37
2017-10-19T21:48:38.272Z,27.62
2017-10-19T21:51:04.489Z,31.83
2017-10-19T21:53:30.754Z,26.27
2017-10-19T21:55:57.324Z,28.10
2017-10-19T21:58:23.543Z,28.73
2017-10-19T22:00:49.795Z,26.58
2017-10-19T22:03:16.052Z,27.60
2017-10-19T22:05:42.605Z,28.12
2017-10-19T22:08:08.821Z,25.40
2017-10-19T22:10:35.047Z,25.65
2017-10-19T22:13:01.287Z,27.70
2017-10-19T22:15:27.485Z,26.95
2017-10-19T22:17:53.698Z,25.90
2017-10-19T22:20:19.920Z,26.20
2017-10-19T22:22:46.176Z,22.92
2017-10-19T22:25:12.407Z,27.27
2017-10-19T22:27:38.613Z,27.50
2017-10-19T22:30:04.867Z,26.98
2017-10-19T22:32:31.071Z,28.73
2017-10-19T22:34:57.309Z,26.15
2017-10-19T22:37:23.503Z,25.90
2017-10-19T22:39:49.718Z,26.40
2017-10-19T22:42:16.304Z,24.80
2017-10-19T22:44:43.313Z,25.40
2017-10-19T22:47:09.537Z,26.85
2017-10-19T22:49:35.722Z,24.12
2017-10-19T22:52:01.961Z,27.20
2017-10-19T22:54:28.208Z,25.98
2017-10-19T22:56:54.788Z,29.25
2017-10-19T22:59:21.297Z,23.62
2017-10-19T23:01:47.497Z,25.12
2017-10-19T23:04:14.064Z,24.35
2017-10-19T23:06:40.287Z,24.67
2017-10-19T23:09:06.605Z,25.92
2017-10-19T23:11:33.191Z,25.27
2017-10-19T23:13:59.413Z,28.27
2017-10-19T23:16:25.611Z,24.73
2017-10-19T23:18:51.832Z,25.17
2017-10-19T23:21:18.214Z,26.85
2017-10-19T23:23:44.442Z,27.67
2017-10-19T23:26:10.703Z,25.65
2017-10-19T23:28:38.047Z,25.80
2017-10-19T23:31:04.662Z,26.27
2017-10-19T23:33:31.028Z,25.85
2017-10-19T23:35:57.293Z,24.27
2017-10-19T23:38:23.504Z,25.33
2017-10-19T23:40:49.852Z,26.70
2017-10-19T23:43:16.052Z,24.55
2017-10-19T23:45:42.285Z,23.38
2017-10-19T23:48:08.484Z,24.10
2017-10-19T23:50:35.216Z,25.90
2017-10-19T23:53:01.412Z,25.58
2017-10-19T23:55:27.652Z,23.77
2017-10-19T23:57:53.854Z,26.30
